Time;durP1;ratioP1;P1;durP2;ratioP2;P2;SDS_P1;SDS_P2;PMS_P1;PMS_P2;Temp;Humidity;BMP_temperature;BMP_pressure;BME280_temperature;BME280_humidity;BME280_pressure;Samples;Min_cycle;Max_cycle;Signal;HPM_P1;HPM_P2
2023/08/03 00:00:09;;;;;;;5.47;2.60;;;17.30;99.90;;;17.68;100.00;96595.69;10438329;28;20221;-69
2023/08/03 00:05:16;;;;;;;6.10;2.75;;;17.20;99.90;;;17.66;100.00;96592.22;10438527;28;20229;-70
2023/08/03 00:10:22;;;;;;;5.32;2.22;;;17.20;99.90;;;17.63;100.00;96592.22;10445310;28;20229;-67
2023/08/03 00:15:26;;;;;;;4.85;2.65;;;17.20;99.90;;;17.43;100.00;96595.47;10443545;28;20255;-68
2023/08/03 00:20:30;;;;;;;5.60;2.83;;;17.00;99.90;;;17.30;100.00;96596.19;10441176;28;20221;-67
2023/08/03 00:25:33;;;;;;;4.55;2.30;;;16.80;99.90;;;17.23;100.00;96597.00;10442961;28;20232;-67
2023/08/03 00:30:37;;;;;;;5.88;2.67;;;16.70;99.90;;;16.99;100.00;96601.00;10444037;28;20252;-70
2023/08/03 00:35:40;;;;;;;5.47;2.70;;;16.50;99.90;;;17.00;100.00;96587.28;10442457;28;20240;-71
2023/08/03 00:40:43;;;;;;;5.00;2.72;;;16.40;99.90;;;17.09;100.00;96589.94;10446644;28;20225;-66
2023/08/03 00:45:48;;;;;;;4.15;2.72;;;16.50;99.90;;;17.08;100.00;96595.09;10443425;28;20623;-72
2023/08/03 00:50:51;;;;;;;5.47;3.08;;;16.50;99.90;;;17.09;100.00;96597.69;10442441;28;20229;-68
2023/08/03 00:55:54;;;;;;;8.02;3.25;;;16.60;99.90;;;17.21;100.00;96596.97;10444128;28;20243;-67
2023/08/03 01:00:58;;;;;;;5.47;2.90;;;16.60;99.90;;;17.21;100.00;96590.94;10443642;28;20224;-69
2023/08/03 01:06:01;;;;;;;5.93;2.83;;;16.70;99.90;;;17.27;100.00;96584.09;10445408;28;20225;-69
2023/08/03 01:11:05;;;;;;;6.05;3.00;;;16.60;99.90;;;17.53;100.00;96586.06;10443864;28;20704;-66
2023/08/03 01:16:10;;;;;;;7.10;2.97;;;16.90;99.90;;;17.64;100.00;96597.38;10436862;28;20612;-69
2023/08/03 01:21:14;;;;;;;5.68;3.25;;;17.20;99.90;;;17.61;98.81;96601.66;10439715;28;20233;-67
2023/08/03 01:26:19;;;;;;;8.38;3.10;;;17.20;99.90;;;17.60;98.96;96590.47;10444567;28;20221;-68
2023/08/03 01:31:22;;;;;;;6.60;3.20;;;17.20;99.90;;;17.47;100.00;96589.47;10436287;28;20229;-69
2023/08/03 01:36:25;;;;;;;8.48;3.08;;;16.90;99.90;;;17.39;100.00;96591.09;10439909;28;20700;-69
2023/08/03 01:41:30;;;;;;;5.50;2.90;;;16.80;99.90;;;17.61;95.56;96593.91;10445949;28;20232;-69
2023/08/03 01:46:33;;;;;;;6.25;2.78;;;17.10;99.90;;;17.52;95.21;96599.84;10440182;28;20227;-69
2023/08/03 01:51:36;;;;;;;7.60;2.90;;;17.00;99.90;;;17.65;93.32;96606.84;10437326;28;20225;-69
2023/08/03 01:56:41;;;;;;;6.50;3.15;;;17.10;99.90;;;17.67;91.61;96594.81;10438638;28;20626;-69
2023/08/03 02:01:44;;;;;;;6.25;2.67;;;17.10;99.90;;;17.71;88.19;96594.00;10442654;28;20586;-68
2023/08/03 02:06:51;;;;;;;4.90;2.55;;;17.20;99.90;;;17.66;86.50;96597.41;10436384;28;20617;-68
2023/08/03 02:11:56;;;;;;;7.22;2.80;;;17.30;99.90;;;17.61;85.37;96599.06;10436864;28;20322;-69
2023/08/03 02:16:59;;;;;;;8.30;2.55;;;17.30;99.90;;;17.64;85.82;96593.94;10438779;28;20228;-68
2023/08/03 02:22:02;;;;;;;7.22;2.97;;;17.20;99.90;;;17.43;86.62;96585.13;10430439;28;20231;-71
2023/08/03 02:27:07;;;;;;;10.80;2.67;;;17.00;99.90;;;17.56;84.98;96602.47;10444894;28;20700;-69
2023/08/03 02:32:11;;;;;;;5.57;2.60;;;17.10;99.90;;;17.52;85.81;96603.28;10443316;28;20228;-69
2023/08/03 02:37:14;;;;;;;6.03;2.50;;;16.90;99.90;;;17.28;87.79;96603.03;10438236;28;20229;-69
2023/08/03 02:42:18;;;;;;;7.05;2.58;;;16.70;99.90;;;17.13;89.01;96621.81;10438791;28;20548;-69
2023/08/03 02:47:21;;;;;;;5.72;2.50;;;16.50;99.90;;;17.34;86.23;96621.22;10437768;28;20604;-69
2023/08/03 02:52:25;;;;;;;6.32;2.30;;;16.60;99.90;;;17.09;89.34;96620.94;10438485;28;20674;-68
2023/08/03 02:57:29;;;;;;;3.88;2.50;;;16.40;99.90;;;16.88;90.59;96620.66;10439796;28;20228;-68
2023/08/03 03:02:32;;;;;;;4.30;2.30;;;16.20;99.90;;;16.78;91.06;96632.59;10432694;28;20237;-68
2023/08/03 03:07:35;;;;;;;8.40;3.05;;;16.00;99.90;;;16.78;89.85;96631.75;10439109;28;20816;-68
2023/08/03 03:12:40;;;;;;;7.13;2.30;;;16.10;99.90;;;16.65;89.54;96633.25;10438680;28;20232;-68
2023/08/03 03:17:43;;;;;;;3.97;2.47;;;16.00;99.90;;;16.94;87.05;96632.78;10436145;28;20231;-68
2023/08/03 03:22:46;;;;;;;6.22;2.13;;;16.20;99.90;;;17.16;83.79;96633.91;10439288;28;20740;-68
2023/08/03 03:27:50;;;;;;;5.07;2.15;;;16.60;99.90;;;17.26;84.41;96639.19;10437872;28;20229;-68
2023/08/03 03:32:54;;;;;;;4.95;2.30;;;16.60;99.90;;;17.37;81.33;96644.50;10439282;28;20217;-68
2023/08/03 03:37:57;;;;;;;7.20;2.38;;;16.80;99.90;;;17.39;81.72;96660.84;10437084;28;20309;-68
2023/08/03 03:43:01;;;;;;;6.82;2.40;;;16.90;99.90;;;17.45;82.10;96657.47;10433662;28;20224;-68
2023/08/03 03:48:04;;;;;;;6.10;2.28;;;17.00;99.90;;;17.29;83.78;96656.44;10439573;28;20619;-69
2023/08/03 03:53:08;;;;;;;4.93;2.33;;;16.80;99.90;;;17.26;84.62;96667.59;10435906;28;20244;-68
2023/08/03 03:58:12;;;;;;;6.57;2.63;;;16.70;99.90;;;17.17;86.53;96676.94;10442620;28;20666;-68
2023/08/03 04:03:15;;;;;;;9.02;2.55;;;16.60;99.90;;;17.07;88.53;96660.50;10434141;28;20237;-69
2023/08/03 04:08:18;;;;;;;6.82;2.83;;;16.40;99.90;;;17.03;89.50;96674.22;10429665;28;20682;-68
2023/08/03 04:13:23;;;;;;;8.30;2.50;;;16.30;99.90;;;16.89;88.82;96674.03;10434692;28;20225;-69
2023/08/03 04:18:27;;;;;;;5.63;2.40;;;16.20;99.90;;;16.84;89.97;96678.25;10437496;28;20225;-68
2023/08/03 04:23:30;;;;;;;4.82;2.20;;;16.10;99.90;;;16.66;90.69;96690.03;10429836;28;20304;-70
2023/08/03 04:28:35;;;;;;;6.97;2.25;;;15.90;99.90;;;16.69;91.13;96694.38;10438790;28;20236;-68
2023/08/03 04:33:38;;;;;;;4.75;2.17;;;15.90;99.90;;;17.13;83.52;96701.00;10431898;28;20294;-67
2023/08/03 04:38:41;;;;;;;5.07;2.17;;;16.40;99.90;;;17.28;82.06;96721.84;10437146;28;20225;-67
2023/08/03 04:43:46;;;;;;;7.13;2.25;;;16.70;99.90;;;17.36;80.83;96720.22;10435874;28;20236;-67
2023/08/03 04:48:49;;;;;;;4.93;2.05;;;16.70;99.90;;;17.43;80.49;96734.97;10434610;28;20213;-68
2023/08/03 04:53:52;;;;;;;3.85;2.00;;;16.70;99.90;;;17.51;80.35;96748.84;10440946;28;20382;-68
2023/08/03 04:58:57;;;;;;;6.05;2.10;;;16.90;99.90;;;17.59;79.10;96740.31;10444355;28;20314;-68
2023/08/03 05:04:00;;;;;;;4.15;2.00;;;17.00;99.90;;;17.68;78.17;96753.31;10440665;28;20229;-68
2023/08/03 05:09:04;;;;;;;3.28;1.60;;;17.20;99.90;;;17.79;78.61;96756.94;10443364;28;20221;-68
2023/08/03 05:14:08;;;;;;;4.10;1.60;;;17.30;99.90;;;17.86;78.84;96753.56;10442269;28;20601;-68
2023/08/03 05:19:11;;;;;;;1.90;1.60;;;17.40;99.90;;;18.13;76.92;96760.72;10443287;28;20736;-67
2023/08/03 05:24:14;;;;;;;2.42;1.50;;;17.70;99.90;;;18.53;75.52;96752.47;10443757;28;20232;-67
2023/08/03 05:29:19;;;;;;;3.78;1.65;;;18.30;99.90;;;19.11;71.37;96763.22;10438368;28;20225;-68
2023/08/03 05:34:22;;;;;;;1.88;1.50;;;18.90;99.90;;;19.00;72.27;96772.66;10439848;28;20236;-67
2023/08/03 05:39:27;;;;;;;3.58;1.58;;;18.50;99.90;;;18.58;73.07;96792.19;10441952;28;20233;-67
2023/08/03 05:44:31;;;;;;;3.50;1.50;;;17.90;99.90;;;18.31;74.68;96775.53;10425656;28;20233;-69
2023/08/03 05:49:34;;;;;;;3.40;1.77;;;17.80;99.90;;;18.33;75.30;96780.75;10430984;28;20221;-67
2023/08/03 05:54:38;;;;;;;3.08;1.70;;;17.80;99.90;;;18.38;75.01;96779.94;10427793;28;20506;-69
2023/08/03 05:59:43;;;;;;;3.85;1.73;;;17.80;99.90;;;18.38;75.04;96773.91;10428191;28;20551;-69
2023/08/03 06:04:46;;;;;;;3.63;1.88;;;17.80;99.90;;;18.33;74.59;96781.59;10422826;28;20217;-70
2023/08/03 06:09:50;;;;;;;3.25;1.60;;;17.80;99.90;;;18.26;75.86;96786.69;10416254;28;20723;-67
2023/08/03 06:14:54;;;;;;;2.03;1.45;;;17.70;99.90;;;18.32;76.52;96795.41;10424762;28;20251;-70
2023/08/03 06:19:57;;;;;;;4.45;1.33;;;17.70;99.90;;;18.56;74.84;96806.81;10426139;28;20235;-70
2023/08/03 06:25:00;;;;;;;4.50;1.70;;;17.90;99.90;;;18.58;74.82;96812.91;10429962;28;20605;-70
2023/08/03 06:30:08;;;;;;;3.60;1.58;;;18.00;99.90;;;18.75;74.84;96806.16;10427386;28;20318;-71
2023/08/03 06:35:25;;;;;;;3.03;1.42;;;18.00;99.90;;;19.78;71.94;96805.06;10429165;28;20244;-70
2023/08/03 06:40:29;;;;;;;3.05;1.25;;;18.90;99.90;;;20.64;65.71;96826.06;10428267;28;20263;-69
2023/08/03 06:45:34;;;;;;;2.40;1.55;;;19.50;99.90;;;20.21;65.53;96820.75;10443896;28;20221;-69
2023/08/03 06:50:38;;;;;;;3.35;1.42;;;19.20;99.90;;;20.00;66.27;96815.50;10438917;28;20236;-70
2023/08/03 06:55:44;;;;;;;3.50;1.55;;;19.20;99.90;;;20.56;65.06;96826.91;10440596;28;20248;-69
2023/08/03 07:00:49;;;;;;;2.65;1.65;;;19.80;99.90;;;21.97;58.66;96817.13;10435980;28;20291;-69
2023/08/03 07:05:52;;;;;;;2.85;1.50;;;21.20;99.90;;;22.32;55.84;96823.06;10436958;28;20712;-70
2023/08/03 07:10:55;;;;;;;3.05;1.48;;;21.20;99.90;;;21.55;55.33;96832.06;10439529;28;20633;-70
2023/08/03 07:16:08;;;;;;;3.92;1.48;;;20.60;99.90;;;22.07;53.20;96838.78;10440570;28;20265;-70
2023/08/03 07:21:11;;;;;;;2.50;1.40;;;21.40;99.90;;;22.93;50.63;96854.75;10433794;28;20236;-70
2023/08/03 07:26:15;;;;;;;3.50;1.77;;;22.10;99.00;;;23.88;48.07;96862.59;10443001;28;20240;-69
2023/08/03 07:31:19;;;;;;;2.90;1.40;;;22.90;97.40;;;24.21;45.88;96856.97;10440410;28;20248;-70
2023/08/03 07:36:23;;;;;;;2.97;1.27;;;23.10;95.70;;;23.24;47.25;96861.50;10442051;28;20233;-70
2023/08/03 07:41:26;;;;;;;2.42;1.33;;;22.20;95.80;;;23.41;47.40;96857.00;10445383;28;20231;-69
2023/08/03 07:46:31;;;;;;;1.98;1.50;;;22.30;96.60;;;23.26;48.69;96867.53;10441584;28;20266;-70
2023/08/03 07:51:34;;;;;;;2.38;1.25;;;22.20;96.70;;;22.79;48.65;96867.03;10439221;28;20354;-70
2023/08/03 07:56:37;;;;;;;2.70;1.40;;;21.60;97.10;;;22.20;50.40;96860.44;10443111;28;20243;-70
2023/08/03 08:01:43;;;;;;;2.40;1.55;;;21.10;97.90;;;22.33;50.74;96864.72;10438121;28;20231;-68
2023/08/03 08:06:47;;;;;;;3.83;1.67;;;21.20;98.50;;;22.94;50.90;96866.91;10439226;28;20645;-70
2023/08/03 08:11:50;;;;;;;1.80;1.35;;;21.90;98.60;;;22.73;49.12;96864.47;10441734;28;20248;-69
2023/08/03 08:16:55;;;;;;;3.28;1.50;;;21.90;97.00;;;22.55;51.35;96869.78;10440154;28;20278;-70
2023/08/03 08:22:15;;;;;;;3.63;1.52;;;21.60;98.60;;;22.34;50.98;96861.22;10435349;28;20734;-70
2023/08/03 08:27:20;;;;;;;2.97;1.73;;;21.40;98.00;;;22.39;52.58;96862.06;10452384;28;20252;-70
2023/08/03 08:32:25;;;;;;;2.63;1.30;;;21.40;99.40;;;22.68;51.51;96880.13;10448133;28;20243;-70
2023/08/03 08:37:29;;;;;;;2.00;1.45;;;21.60;98.50;;;22.51;53.01;96887.19;10448513;28;20232;-70
2023/08/03 08:42:33;;;;;;;2.60;1.60;;;21.50;99.30;;;22.35;52.78;96889.03;10447067;28;20776;-69
2023/08/03 08:47:37;;;;;;;3.17;1.60;;;21.30;99.50;;;21.98;53.71;96891.75;10449875;28;20282;-70
2023/08/03 08:52:44;;;;;;;2.30;1.52;;;21.00;99.90;;;21.52;53.50;96909.22;10446225;28;20326;-68
2023/08/03 08:57:50;;;;;;;2.22;1.30;;;20.80;99.30;;;21.09;55.34;96917.88;10447336;28;20229;-70
2023/08/03 09:03:02;;;;;;;2.67;1.35;;;20.30;99.90;;;20.97;54.85;96923.03;10450014;28;20231;-68
2023/08/03 09:08:07;;;;;;;2.03;1.20;;;20.40;99.90;;;20.72;56.04;96932.56;10446838;28;20225;-70
2023/08/03 09:13:10;;;;;;;3.10;1.50;;;20.20;99.90;;;20.77;56.24;96935.13;10443988;28;20252;-70
2023/08/03 09:18:15;;;;;;;3.47;1.40;;;20.20;99.90;;;20.74;55.44;96933.41;10451624;28;20239;-70
2023/08/03 09:23:30;;;;;;;1.90;1.27;;;20.20;99.90;;;20.99;55.81;96942.09;10445381;28;20225;-70
2023/08/03 09:28:37;;;;;;;2.22;1.35;;;20.50;99.90;;;21.08;55.89;96955.09;10446290;28;20225;-70
2023/08/03 09:33:42;;;;;;;3.13;1.50;;;20.60;99.90;;;21.13;54.80;96950.78;10444809;28;20580;-69
2023/08/03 09:38:45;;;;;;;2.42;1.17;;;20.70;99.60;;;21.14;54.95;96959.44;10449328;28;20308;-70
2023/08/03 09:43:49;;;;;;;2.97;1.30;;;20.60;99.50;;;21.24;54.79;96962.94;10445079;28;20228;-70
2023/08/03 09:48:53;;;;;;;2.20;1.30;;;20.70;99.60;;;21.24;55.25;96968.13;10447707;28;20341;-70
2023/08/03 09:54:14;;;;;;;1.95;1.38;;;20.70;99.90;;;21.52;55.11;96969.03;10444705;28;20228;-70
2023/08/03 09:59:25;;;;;;;2.65;1.20;;;21.00;99.90;;;21.64;54.31;96963.81;10446206;28;20249;-70
2023/08/03 10:04:32;;;;;;;1.95;0.93;;;21.00;99.30;;;21.94;54.13;96973.28;10453768;22;20638;-70
2023/08/03 10:09:40;;;;;;;1.23;0.85;;;21.40;99.40;;;22.53;55.60;96967.94;10383758;28;20230;-70
2023/08/03 10:14:44;;;;;;;2.00;1.20;;;22.00;99.90;;;23.10;51.66;96961.53;10401230;28;20316;-70
2023/08/03 10:19:49;;;;;;;1.70;1.00;;;22.60;97.80;;;23.35;51.39;96961.34;10399290;28;20623;-70
2023/08/03 10:25:19;;;;;;;2.88;1.15;;;22.50;98.10;;;23.05;50.11;96962.44;10401694;28;20226;-70
2023/08/03 10:30:22;;;;;;;2.58;1.23;;;22.50;96.70;;;22.92;50.94;96959.91;10394864;28;20320;-71
2023/08/03 10:35:40;;;;;;;1.40;0.95;;;22.40;96.80;;;22.76;51.69;96968.69;10395428;28;20249;-70
2023/08/03 10:40:43;;;;;;;1.48;1.10;;;22.10;97.60;;;22.74;51.55;96956.53;10402180;28;20554;-70
2023/08/03 10:45:46;;;;;;;2.78;1.25;;;22.00;97.80;;;22.73;52.14;96966.09;10397735;28;20232;-70
2023/08/03 10:51:02;;;;;;;2.65;1.38;;;21.90;98.60;;;22.79;51.01;96966.06;10401080;28;20977;-70
2023/08/03 10:56:09;;;;;;;2.25;1.30;;;22.20;97.10;;;23.00;52.29;96966.81;10396737;28;20600;-71
2023/08/03 11:01:16;;;;;;;1.92;1.13;;;22.40;98.10;;;23.50;50.77;96983.84;10397882;28;20675;-70
2023/08/03 11:06:20;;;;;;;2.40;1.05;;;23.00;97.10;;;23.93;52.11;96983.50;10400717;28;20230;-71
2023/08/03 11:11:32;;;;;;;2.22;1.10;;;23.40;97.90;;;24.14;49.39;96975.44;10407412;28;20739;-70
2023/08/03 11:16:35;;;;;;;4.05;1.33;;;23.60;96.10;;;23.99;47.98;96983.44;10398760;28;20225;-70
2023/08/03 11:21:43;;;;;;;2.33;1.05;;;23.20;95.40;;;23.59;49.11;96979.41;10401403;28;20233;-70
2023/08/03 11:26:48;;;;;;;1.63;1.05;;;23.00;95.50;;;23.93;49.27;96976.53;10399933;28;20223;-70
2023/08/03 11:31:51;;;;;;;1.10;1.00;;;23.50;95.70;;;24.25;48.16;96981.41;10400410;28;20230;-70
2023/08/03 11:36:56;;;;;;;2.15;1.15;;;23.80;95.00;;;24.33;47.82;96970.00;10400053;28;20780;-70
2023/08/03 11:42:00;;;;;;;2.53;1.10;;;23.80;94.50;;;24.01;48.47;96971.25;10399154;28;20233;-70
2023/08/03 11:47:07;;;;;;;1.15;0.90;;;23.40;95.10;;;24.25;48.11;96976.16;10396488;28;20221;-70
2023/08/03 11:52:19;;;;;;;2.13;1.00;;;23.70;94.80;;;24.11;47.25;96988.53;10398292;28;20265;-70
2023/08/03 12:02:45;;;;;;;2.50;0.95;;;23.60;95.40;;;23.97;47.29;96990.41;10407661;28;20221;-70
2023/08/03 12:07:57;;;;;;;2.33;1.02;;;23.60;93.90;;;23.95;47.49;96994.78;10404649;28;20221;-70
2023/08/03 12:13:05;;;;;;;2.17;0.90;;;23.40;93.90;;;24.03;48.83;96990.34;10404510;28;20229;-70
2023/08/03 12:18:08;;;;;;;2.83;1.10;;;23.50;95.10;;;24.10;48.01;97009.44;10406516;28;20241;-71
2023/08/03 12:23:12;;;;;;;1.20;0.98;;;23.50;94.70;;;24.00;47.48;97009.50;10396910;28;20316;-70
2023/08/03 12:28:15;;;;;;;1.48;1.00;;;23.20;94.60;;;24.01;48.64;97013.88;10408222;28;20229;-70
2023/08/03 12:33:19;;;;;;;3.40;1.20;;;23.40;95.10;;;24.06;48.61;97011.19;10403726;28;20237;-70
2023/08/03 12:38:23;;;;;;;1.48;1.00;;;23.40;95.00;;;24.36;48.11;97011.78;10405519;28;20295;-70
2023/08/03 12:43:26;;;;;;;1.25;1.10;;;23.80;94.40;;;24.19;46.42;97010.19;10406311;28;20233;-70
2023/08/03 12:48:29;;;;;;;3.80;1.20;;;23.70;93.20;;;24.27;47.04;97011.00;10407621;28;20217;-70
2023/08/03 12:53:34;;;;;;;1.98;1.05;;;23.80;93.40;;;24.29;46.49;97026.63;10398563;28;21757;-70
2023/08/03 12:58:37;;;;;;;1.50;0.95;;;23.80;93.20;;;24.21;47.03;97031.94;10405089;28;20248;-71
2023/08/03 13:03:41;;;;;;;1.40;1.10;;;23.60;93.60;;;24.04;48.15;97028.66;10404779;28;20620;-70
2023/08/03 13:08:45;;;;;;;1.85;1.20;;;23.40;94.10;;;23.71;48.21;97028.06;10405271;28;20616;-70
2023/08/03 13:13:48;;;;;;;1.00;1.00;;;23.30;94.10;;;23.95;48.31;97020.88;10404149;28;20721;-70
2023/08/03 13:18:52;;;;;;;1.20;1.10;;;23.50;94.20;;;24.04;48.71;97031.25;10404384;28;20233;-70
2023/08/03 13:23:57;;;;;;;1.20;1.10;;;23.60;94.30;;;24.08;47.45;97027.72;10406070;28;20698;-70
2023/08/03 13:29:00;;;;;;;1.40;0.90;;;23.70;93.50;;;23.85;47.26;97037.53;10405445;28;20224;-70
2023/08/03 13:34:03;;;;;;;2.88;1.20;;;23.20;93.50;;;23.75;48.31;97035.00;10409451;28;20653;-70
2023/08/03 13:39:08;;;;;;;1.77;0.88;;;23.20;94.20;;;23.77;47.89;97037.56;10408978;28;20626;-70
2023/08/03 13:44:11;;;;;;;1.85;0.90;;;23.10;94.10;;;24.15;46.99;97042.47;10402551;28;20320;-70
2023/08/03 13:49:14;;;;;;;1.10;1.00;;;23.60;93.30;;;24.12;47.97;97034.63;10404089;28;20315;-70
2023/08/03 13:54:19;;;;;;;1.90;1.08;;;23.40;94.20;;;24.04;47.51;97041.69;10398387;28;20285;-71
2023/08/03 13:59:23;;;;;;;1.65;0.88;;;23.20;94.00;;;23.95;47.72;97046.97;10387264;28;20234;-69
2023/08/03 14:04:31;;;;;;;2.17;0.98;;;23.20;94.20;;;23.99;47.46;97038.25;10391457;28;20708;-68
2023/08/03 14:09:36;;;;;;;1.90;1.10;;;23.30;93.60;;;23.97;48.32;97040.88;10399608;28;20229;-67
2023/08/03 14:14:39;;;;;;;1.33;1.00;;;23.30;94.20;;;23.72;48.25;97037.63;10392089;28;21126;-71
2023/08/03 14:19:45;;;;;;;1.40;1.00;;;23.10;94.40;;;23.82;47.75;97041.88;10391780;28;20225;-68
2023/08/03 14:24:50;;;;;;;1.88;1.10;;;23.30;93.90;;;23.73;48.37;97046.31;10394739;28;20237;-69
2023/08/03 14:29:56;;;;;;;1.88;0.90;;;23.20;93.90;;;23.80;47.49;97053.22;10384917;28;20853;-68
2023/08/03 14:34:59;;;;;;;2.45;0.80;;;23.30;93.40;;;23.91;48.86;97045.28;10383628;28;20757;-69
2023/08/03 14:40:09;;;;;;;5.13;0.95;;;23.30;94.80;;;24.03;47.96;97046.03;10377687;28;20222;-69
2023/08/03 14:45:12;;;;;;;1.85;0.95;;;23.40;93.80;;;23.99;47.86;97039.13;10379046;28;20242;-68
2023/08/03 14:50:17;;;;;;;0.75;0.70;;;23.40;93.80;;;24.18;47.06;97052.88;10378071;28;20461;-69
2023/08/03 14:55:23;;;;;;;1.40;0.98;;;23.60;93.40;;;24.32;45.56;97041.41;10379423;28;20720;-69
2023/08/03 15:00:26;;;;;;;1.90;1.00;;;23.70;92.60;;;24.39;45.51;97048.31;10376262;28;20623;-69
2023/08/03 15:05:30;;;;;;;1.27;0.80;;;23.80;92.30;;;24.02;45.50;97043.44;10387785;28;20225;-68
2023/08/03 15:10:35;;;;;;;1.65;0.80;;;23.20;92.40;;;23.90;44.99;97069.69;10380501;28;20229;-68
2023/08/03 15:15:40;;;;;;;1.67;0.75;;;23.30;91.80;;;23.85;45.30;97050.56;10384494;28;20225;-67
2023/08/03 15:20:44;;;;;;;3.75;2.03;;;23.30;91.90;;;23.68;46.12;97061.13;10383878;28;20225;-67
2023/08/03 15:25:56;;;;;;;75.72;51.25;;;23.20;92.00;;;23.73;46.46;97057.63;10387863;28;20222;-67
2023/08/03 15:31:04;;;;;;;41.78;32.03;;;23.20;92.30;;;23.77;45.79;97053.25;10384228;28;20300;-67
2023/08/03 15:36:09;;;;;;;105.07;73.88;;;23.20;92.00;;;23.75;45.87;97050.66;10383221;28;20229;-69
2023/08/03 15:41:16;;;;;;;13.73;10.93;;;23.20;91.90;;;23.68;45.78;97048.06;10389271;28;20618;-70
2023/08/03 15:46:22;;;;;;;4.28;3.15;;;23.20;91.80;;;23.61;46.52;97042.91;10391936;28;20233;-70
2023/08/03 15:51:30;;;;;;;4.03;2.95;;;23.10;92.20;;;23.42;47.26;97040.44;10389905;28;20592;-70
2023/08/03 15:56:40;;;;;;;8.55;5.88;;;23.00;92.40;;;23.46;47.56;97037.78;10390723;28;20724;-68
2023/08/03 16:01:44;;;;;;;4.35;3.13;;;23.00;92.90;;;23.44;48.01;97043.91;10412339;22;20651;-70
2023/08/03 16:06:47;;;;;;;4.78;4.05;;;22.70;93.60;;;23.52;47.03;97036.88;10427523;28;20225;-70
2023/08/03 16:11:52;;;;;;;3.25;2.65;;;22.70;93.10;;;23.42;45.93;97040.44;10425817;28;20340;-69
2023/08/03 16:16:57;;;;;;;6.93;5.80;;;22.70;92.20;;;23.47;46.26;97043.88;10383515;28;20237;-70
2023/08/03 16:22:00;;;;;;;2.28;1.85;;;22.80;92.50;;;23.41;46.79;97038.69;10394774;28;20247;-70
2023/08/03 16:27:05;;;;;;;2.85;1.15;;;22.60;92.80;;;23.24;47.00;97047.50;10392528;28;20308;-69
2023/08/03 16:32:09;;;;;;;4.43;3.22;;;22.50;93.30;;;23.33;47.03;97044.84;10390625;28;20237;-69
2023/08/03 16:37:15;;;;;;;4.03;3.47;;;22.40;93.00;;;23.16;47.44;97047.53;10387990;28;20237;-70
2023/08/03 16:42:19;;;;;;;3.60;2.33;;;22.30;93.10;;;23.20;47.91;97051.00;10391128;28;20232;-69
2023/08/03 16:47:24;;;;;;;2.60;2.00;;;22.40;93.50;;;23.25;48.95;97044.00;10397534;28;20232;-69
2023/08/03 16:52:27;;;;;;;2.75;2.00;;;22.40;94.40;;;23.03;48.97;97047.63;10397536;28;20583;-70
2023/08/03 16:57:31;;;;;;;2.47;2.20;;;22.20;94.40;;;22.91;49.02;97053.72;10397352;28;20260;-70
2023/08/03 17:02:35;;;;;;;3.88;2.28;;;22.00;94.60;;;22.76;50.11;97065.09;10393828;28;20307;-70
2023/08/03 17:07:40;;;;;;;1.65;1.52;;;21.80;95.20;;;22.86;48.92;97066.81;10399223;28;20231;-69
2023/08/03 17:12:45;;;;;;;2.13;1.90;;;21.90;94.40;;;22.69;50.34;97076.38;10392220;28;20232;-70
2023/08/03 17:17:48;;;;;;;2.33;1.92;;;21.80;95.20;;;22.73;49.33;97075.53;10396636;28;20237;-68
2023/08/03 17:22:51;;;;;;;4.53;4.10;;;21.90;94.60;;;22.64;51.63;97080.78;10395033;28;20226;-69
2023/08/03 17:27:55;;;;;;;2.20;1.95;;;21.70;96.20;;;22.43;51.75;97100.81;10398678;28;20705;-69
2023/08/03 17:32:59;;;;;;;1.80;1.33;;;21.50;96.40;;;22.44;51.68;97105.13;10391872;28;20229;-69
2023/08/03 17:38:02;;;;;;;2.22;2.03;;;21.50;96.60;;;22.23;51.79;97102.56;10400783;28;20236;-69
2023/08/03 17:43:06;;;;;;;2.60;1.80;;;21.40;96.20;;;22.18;52.54;97101.72;10394121;28;20228;-69
2023/08/03 17:48:09;;;;;;;1.90;1.70;;;21.30;97.00;;;22.13;53.36;97103.41;10394110;28;21811;-69
2023/08/03 17:53:15;;;;;;;2.97;2.10;;;21.20;97.70;;;22.04;54.23;97120.75;10390071;28;20340;-69
2023/08/03 17:58:19;;;;;;;2.47;1.83;;;21.10;98.20;;;21.94;54.02;97121.63;10396541;28;20234;-69
2023/08/03 18:03:22;;;;;;;1.65;1.50;;;21.00;98.20;;;21.80;55.13;97120.75;10397342;28;20234;-69
2023/08/03 18:08:25;;;;;;;2.25;1.30;;;21.00;98.90;;;21.85;54.38;97123.38;10392887;28;20231;-67
2023/08/03 18:13:30;;;;;;;1.30;1.20;;;20.90;98.20;;;21.68;54.56;97136.34;10391941;28;20225;-69
2023/08/03 18:18:35;;;;;;;1.85;1.50;;;20.80;98.20;;;21.63;56.05;97143.28;10388979;28;20226;-69
2023/08/03 18:23:38;;;;;;;1.52;1.30;;;20.80;99.40;;;21.62;56.76;97151.94;10388665;28;20240;-68
2023/08/03 18:28:43;;;;;;;2.00;1.10;;;20.70;99.90;;;21.52;56.57;97167.53;10392222;28;20233;-69
2023/08/03 18:33:47;;;;;;;1.30;1.20;;;20.60;99.90;;;21.35;56.33;97164.00;10390035;28;20236;-69
2023/08/03 18:38:52;;;;;;;1.30;1.20;;;20.40;99.60;;;21.01;57.69;97158.66;10392541;28;20233;-69
2023/08/03 18:43:57;;;;;;;1.20;1.10;;;20.10;99.90;;;20.86;58.93;97163.75;10389362;28;20312;-68
2023/08/03 18:49:00;;;;;;;2.50;1.15;;;19.90;99.90;;;20.64;59.98;97179.22;10391734;28;20230;-69
2023/08/03 18:54:03;;;;;;;1.85;1.30;;;19.70;99.90;;;20.46;61.80;97179.09;10391715;28;20484;-70
2023/08/03 18:59:08;;;;;;;1.40;1.23;;;19.50;99.90;;;20.25;61.80;97165.06;10391150;28;20236;-69
2023/08/03 19:04:11;;;;;;;1.55;1.30;;;19.30;99.90;;;20.08;62.54;97169.25;10392196;28;20236;-69
2023/08/03 19:09:14;;;;;;;0.82;0.82;;;19.10;99.90;;;19.97;65.67;97189.03;10391422;28;20241;-67
2023/08/03 19:14:19;;;;;;;1.67;1.30;;;19.00;99.90;;;19.73;67.27;97185.38;10385900;28;20237;-69
2023/08/03 19:19:22;;;;;;;2.15;1.80;;;18.80;99.90;;;19.60;67.77;97209.38;10389581;28;20253;-69
2023/08/03 19:24:25;;;;;;;1.42;1.10;;;18.60;99.90;;;19.42;69.48;97204.88;10390402;28;21184;-68
2023/08/03 19:29:30;;;;;;;3.28;1.27;;;18.40;99.90;;;19.23;71.46;97202.91;10386577;28;20611;-69
2023/08/03 19:34:33;;;;;;;1.15;1.05;;;18.30;99.90;;;19.07;72.40;97214.81;10388823;28;20236;-70
2023/08/03 19:39:36;;;;;;;1.27;0.95;;;18.10;99.90;;;18.86;74.11;97212.81;10392562;28;20233;-69
2023/08/03 19:44:41;;;;;;;2.40;1.10;;;17.90;99.90;;;18.76;75.95;97211.78;10393502;28;20225;-69
2023/08/03 19:49:44;;;;;;;1.13;1.02;;;17.70;99.90;;;18.57;77.83;97225.28;10392030;28;20225;-69
2023/08/03 19:54:50;;;;;;;1.77;1.20;;;17.50;99.90;;;18.42;79.03;97242.28;10388854;28;20225;-67
2023/08/03 19:59:57;;;;;;;1.50;1.40;;;17.40;99.90;;;18.24;79.79;97242.88;10390854;28;20751;-69
2023/08/03 20:05:04;;;;;;;1.60;1.50;;;17.30;99.90;;;18.15;80.91;97259.97;10398203;28;20237;-71
2023/08/03 20:10:12;;;;;;;3.53;1.30;;;17.20;99.90;;;18.14;81.42;97261.69;10415937;28;20225;-69
2023/08/03 20:15:17;;;;;;;2.53;1.50;;;17.10;99.90;;;18.05;83.00;97263.22;10400885;28;20244;-69
2023/08/03 20:20:20;;;;;;;1.50;1.17;;;17.10;99.90;;;18.04;83.36;97264.06;10405031;28;20263;-70
2023/08/03 20:25:23;;;;;;;2.03;1.40;;;17.10;99.90;;;17.86;83.37;97270.66;10418493;28;20229;-69
2023/08/03 20:30:30;;;;;;;1.58;1.30;;;16.90;99.90;;;17.67;85.23;97269.38;10408131;28;20245;-69
2023/08/03 20:35:34;;;;;;;2.95;1.40;;;16.70;99.90;;;17.54;86.15;97264.81;10414309;28;20712;-69
2023/08/03 20:40:37;;;;;;;2.15;1.45;;;16.60;99.90;;;17.51;86.52;97270.81;10418864;28;20229;-69
2023/08/03 20:45:46;;;;;;;1.55;1.45;;;16.50;99.90;;;17.41;86.88;97281.78;10413699;28;20704;-69
2023/08/03 20:50:51;;;;;;;2.70;1.67;;;16.40;99.90;;;17.14;88.68;97288.94;10411798;28;20569;-68
2023/08/03 20:55:57;;;;;;;2.53;1.75;;;16.30;99.90;;;17.12;88.59;97288.91;10415337;28;20225;-69
2023/08/03 21:01:02;;;;;;;2.60;1.42;;;16.20;99.90;;;17.03;88.94;97299.03;10405969;28;20225;-68
2023/08/03 21:06:07;;;;;;;1.90;1.60;;;16.10;99.90;;;16.80;88.98;97306.25;10412387;28;20638;-68
2023/08/03 21:11:14;;;;;;;2.70;1.73;;;15.90;99.90;;;16.60;89.54;97304.03;10411833;28;20597;-71